AXM6224 WMKK-WMKN
Flight info
| Callsign | AXM6224 |
|---|---|
| Flight time | 0h 43m |
| Altitude | 29000 |
| Route | PIBOS1B PIBOS R208 GUNBO GUNBO1E |
| Aircraft | A20N/M-SDE2E3FGHIRWXY/LB1 |
Departure
| Time | 2026-05-01 11:43 |
|---|---|
| Airport | Kuala Lumpur International Airport (WMKK) |
Arrival
| Time | 2026-05-01 12:26 |
|---|---|
| Airport | Sultan Mahmud Airport (WMKN) |
| Time | Latitude | Longitude | Altitude | Speed | Heading |
|---|---|---|---|---|---|
| 2026-05-01 11:18 | 2.74039 | 101.68483 | 42 ft | 0 kts | 326° |
| 2026-05-01 11:30 | 2.74038 | 101.68483 | 42 ft | 1 kts | 326° |
| 2026-05-01 11:30 | 2.74026 | 101.68492 | 40 ft | 3 kts | 326° |
| 2026-05-01 11:30 | 2.74009 | 101.68503 | 39 ft | 3 kts | 326° |
| 2026-05-01 11:31 | 2.73994 | 101.68513 | 41 ft | 2 kts | 326° |
| 2026-05-01 11:31 | 2.73978 | 101.68522 | 41 ft | 3 kts | 351° |
| 2026-05-01 11:31 | 2.73959 | 101.68521 | 40 ft | 3 kts | 31° |
| 2026-05-01 11:31 | 2.73944 | 101.68509 | 39 ft | 3 kts | 53° |
| 2026-05-01 11:32 | 2.73938 | 101.68500 | 38 ft | 1 kts | 56° |
| 2026-05-01 11:32 | 2.73937 | 101.68499 | 38 ft | 0 kts | 56° |
| 2026-05-01 11:34 | 2.73933 | 101.68506 | 39 ft | 1 kts | 134° |
| 2026-05-01 11:35 | 2.73910 | 101.68510 | 41 ft | 4 kts | 182° |
| 2026-05-01 11:35 | 2.73883 | 101.68491 | 42 ft | 5 kts | 229° |
| 2026-05-01 11:35 | 2.73860 | 101.68458 | 42 ft | 6 kts | 236° |
| 2026-05-01 11:35 | 2.73836 | 101.68421 | 42 ft | 7 kts | 236° |
| 2026-05-01 11:36 | 2.73802 | 101.68371 | 42 ft | 12 kts | 236° |
| 2026-05-01 11:36 | 2.73753 | 101.68298 | 39 ft | 13 kts | 236° |
| 2026-05-01 11:36 | 2.73702 | 101.68221 | 41 ft | 13 kts | 236° |
| 2026-05-01 11:36 | 2.73642 | 101.68205 | 37 ft | 8 kts | 151° |
| 2026-05-01 11:37 | 2.73593 | 101.68239 | 39 ft | 9 kts | 146° |
| 2026-05-01 11:37 | 2.73540 | 101.68274 | 39 ft | 9 kts | 146° |
| 2026-05-01 11:37 | 2.73484 | 101.68312 | 38 ft | 10 kts | 146° |
| 2026-05-01 11:37 | 2.73428 | 101.68351 | 40 ft | 10 kts | 146° |
| 2026-05-01 11:38 | 2.73365 | 101.68393 | 40 ft | 12 kts | 146° |
| 2026-05-01 11:38 | 2.73287 | 101.68444 | 40 ft | 15 kts | 147° |
| 2026-05-01 11:38 | 2.73188 | 101.68512 | 40 ft | 20 kts | 146° |
| 2026-05-01 11:38 | 2.73058 | 101.68599 | 40 ft | 25 kts | 145° |
| 2026-05-01 11:39 | 2.72909 | 101.68701 | 40 ft | 18 kts | 148° |
| 2026-05-01 11:39 | 2.72802 | 101.68772 | 40 ft | 17 kts | 146° |
| 2026-05-01 11:39 | 2.72693 | 101.68843 | 40 ft | 17 kts | 148° |
| 2026-05-01 11:39 | 2.72581 | 101.68919 | 39 ft | 17 kts | 142° |
| 2026-05-01 11:40 | 2.72468 | 101.68996 | 40 ft | 23 kts | 147° |
| 2026-05-01 11:40 | 2.72325 | 101.69093 | 40 ft | 25 kts | 147° |
| 2026-05-01 11:40 | 2.72181 | 101.69190 | 40 ft | 25 kts | 146° |
| 2026-05-01 11:40 | 2.72030 | 101.69292 | 40 ft | 24 kts | 146° |
| 2026-05-01 11:41 | 2.71927 | 101.69362 | 40 ft | 17 kts | 146° |
| 2026-05-01 11:41 | 2.71813 | 101.69375 | 39 ft | 19 kts | 230° |
| 2026-05-01 11:41 | 2.71751 | 101.69271 | 39 ft | 16 kts | 262° |
| 2026-05-01 11:41 | 2.71788 | 101.69154 | 39 ft | 17 kts | 287° |
| 2026-05-01 11:42 | 2.71839 | 101.69081 | 39 ft | 13 kts | 323° |
| 2026-05-01 11:42 | 2.71847 | 101.69075 | 12 ft | 0 kts | 324° |
| 2026-05-01 11:42 | 2.71853 | 101.69071 | 21 ft | 4 kts | 325° |
| 2026-05-01 11:42 | 2.71988 | 101.68983 | 39 ft | 72 kts | 327° |
| 2026-05-01 11:43 | 2.72716 | 101.68495 | 64 ft | 171 kts | 327° |
| 2026-05-01 11:43 | 2.73762 | 101.67786 | 955 ft | 192 kts | 327° |
| 2026-05-01 11:43 | 2.74128 | 101.67535 | 1270 ft | 200 kts | 326° |
| 2026-05-01 11:44 | 2.76485 | 101.65899 | 3408 ft | 216 kts | 326° |
| 2026-05-01 11:44 | 2.77839 | 101.65118 | 4247 ft | 237 kts | 345° |
| 2026-05-01 11:44 | 2.79533 | 101.65068 | 5148 ft | 256 kts | 14° |
| 2026-05-01 11:44 | 2.81231 | 101.65758 | 6157 ft | 270 kts | 33° |
| 2026-05-01 11:45 | 2.82786 | 101.66848 | 7374 ft | 274 kts | 38° |
| 2026-05-01 11:45 | 2.84332 | 101.68004 | 8600 ft | 280 kts | 39° |
| 2026-05-01 11:45 | 2.85902 | 101.69186 | 9819 ft | 286 kts | 39° |
| 2026-05-01 11:45 | 2.87534 | 101.70408 | 10689 ft | 304 kts | 38° |
| 2026-05-01 11:46 | 2.89301 | 101.71720 | 11259 ft | 329 kts | 38° |
| 2026-05-01 11:46 | 2.91195 | 101.73116 | 11962 ft | 344 kts | 38° |
| 2026-05-01 11:46 | 2.93140 | 101.74543 | 13013 ft | 349 kts | 38° |
| 2026-05-01 11:46 | 2.95112 | 101.75989 | 13980 ft | 355 kts | 38° |
| 2026-05-01 11:47 | 2.97116 | 101.77458 | 14879 ft | 359 kts | 38° |
| 2026-05-01 11:47 | 2.99146 | 101.78948 | 15773 ft | 365 kts | 38° |
| 2026-05-01 11:47 | 3.01208 | 101.80462 | 16666 ft | 370 kts | 38° |
| 2026-05-01 11:47 | 3.03294 | 101.81995 | 17502 ft | 375 kts | 38° |
| 2026-05-01 11:48 | 3.05375 | 101.83523 | 18314 ft | 379 kts | 38° |
| 2026-05-01 11:48 | 3.07517 | 101.85097 | 19039 ft | 384 kts | 38° |
| 2026-05-01 11:48 | 3.09680 | 101.86688 | 19776 ft | 388 kts | 38° |
| 2026-05-01 11:48 | 3.11863 | 101.88293 | 20488 ft | 392 kts | 38° |
| 2026-05-01 11:49 | 3.14078 | 101.89922 | 21185 ft | 397 kts | 38° |
| 2026-05-01 11:49 | 3.16313 | 101.91565 | 21913 ft | 401 kts | 38° |
| 2026-05-01 11:49 | 3.18577 | 101.93229 | 22594 ft | 406 kts | 38° |
| 2026-05-01 11:49 | 3.20864 | 101.94911 | 23267 ft | 410 kts | 38° |
| 2026-05-01 11:50 | 3.23178 | 101.96613 | 23856 ft | 415 kts | 38° |
| 2026-05-01 11:50 | 3.25507 | 101.98326 | 24440 ft | 418 kts | 38° |
| 2026-05-01 11:50 | 3.27859 | 102.00057 | 25011 ft | 421 kts | 38° |
| 2026-05-01 11:50 | 3.30232 | 102.01803 | 25579 ft | 425 kts | 38° |
| 2026-05-01 11:51 | 3.32617 | 102.03557 | 26113 ft | 428 kts | 38° |
| 2026-05-01 11:51 | 3.35050 | 102.05318 | 26647 ft | 432 kts | 35° |
| 2026-05-01 11:51 | 3.37638 | 102.06877 | 27139 ft | 437 kts | 31° |
| 2026-05-01 11:51 | 3.40282 | 102.08397 | 27649 ft | 440 kts | 31° |
| 2026-05-01 11:52 | 3.42941 | 102.09933 | 28125 ft | 443 kts | 31° |
| 2026-05-01 11:52 | 3.45636 | 102.11460 | 28606 ft | 447 kts | 29° |
| 2026-05-01 11:52 | 3.48405 | 102.12892 | 28820 ft | 449 kts | 27° |
| 2026-05-01 11:52 | 3.51206 | 102.14289 | 28858 ft | 449 kts | 27° |
| 2026-05-01 11:53 | 3.56797 | 102.17092 | 28854 ft | 450 kts | 28° |
| 2026-05-01 11:53 | 3.62374 | 102.19933 | 28856 ft | 450 kts | 28° |
| 2026-05-01 11:54 | 3.67941 | 102.22784 | 28852 ft | 450 kts | 28° |
| 2026-05-01 11:54 | 3.73480 | 102.25621 | 28848 ft | 449 kts | 28° |
| 2026-05-01 11:55 | 3.79048 | 102.28473 | 28853 ft | 450 kts | 28° |
| 2026-05-01 11:55 | 3.84624 | 102.31329 | 28860 ft | 450 kts | 28° |
| 2026-05-01 11:56 | 3.90204 | 102.34189 | 28847 ft | 450 kts | 28° |
| 2026-05-01 11:56 | 3.95790 | 102.37051 | 28762 ft | 450 kts | 28° |
| 2026-05-01 11:57 | 3.98574 | 102.38478 | 28281 ft | 449 kts | 28° |
| 2026-05-01 11:57 | 4.00419 | 102.39423 | 27813 ft | 449 kts | 28° |
| 2026-05-01 11:57 | 4.04093 | 102.41305 | 27076 ft | 437 kts | 28° |
| 2026-05-01 11:57 | 4.06775 | 102.42679 | 26507 ft | 428 kts | 28° |
| 2026-05-01 11:58 | 4.09413 | 102.44030 | 25928 ft | 421 kts | 28° |
| 2026-05-01 11:58 | 4.11995 | 102.45354 | 25358 ft | 414 kts | 28° |
| 2026-05-01 11:58 | 4.17043 | 102.47942 | 24256 ft | 402 kts | 29° |
| 2026-05-01 11:59 | 4.19510 | 102.49208 | 23721 ft | 396 kts | 29° |
| 2026-05-01 11:59 | 4.21951 | 102.50459 | 23139 ft | 392 kts | 29° |
| 2026-05-01 11:59 | 4.24321 | 102.51675 | 22659 ft | 384 kts | 29° |
| 2026-05-01 12:00 | 4.29122 | 102.54143 | 21592 ft | 407 kts | 29° |
| 2026-05-01 12:00 | 4.31683 | 102.55461 | 21024 ft | 417 kts | 29° |
| 2026-05-01 12:00 | 4.36825 | 102.58096 | 19859 ft | 409 kts | 29° |
| 2026-05-01 12:01 | 4.39334 | 102.59381 | 19298 ft | 400 kts | 28° |
| 2026-05-01 12:01 | 4.41789 | 102.60638 | 18738 ft | 392 kts | 29° |
| 2026-05-01 12:01 | 4.44194 | 102.61872 | 18193 ft | 384 kts | 29° |
| 2026-05-01 12:01 | 4.46550 | 102.63081 | 17603 ft | 376 kts | 29° |
| 2026-05-01 12:02 | 4.48851 | 102.64262 | 17097 ft | 367 kts | 29° |
| 2026-05-01 12:02 | 4.51073 | 102.65402 | 16584 ft | 359 kts | 29° |
| 2026-05-01 12:02 | 4.53278 | 102.66534 | 16080 ft | 352 kts | 29° |
| 2026-05-01 12:02 | 4.55440 | 102.67644 | 15585 ft | 346 kts | 29° |
| 2026-05-01 12:03 | 4.57578 | 102.68743 | 15089 ft | 341 kts | 29° |
| 2026-05-01 12:03 | 4.59671 | 102.69817 | 14600 ft | 336 kts | 29° |
| 2026-05-01 12:03 | 4.61045 | 102.70520 | 14254 ft | 333 kts | 28° |
| 2026-05-01 12:03 | 4.63814 | 102.71898 | 13608 ft | 332 kts | 28° |
| 2026-05-01 12:04 | 4.65956 | 102.72954 | 13138 ft | 354 kts | 28° |
| 2026-05-01 12:04 | 4.67441 | 102.73686 | 12794 ft | 361 kts | 28° |
| 2026-05-01 12:04 | 4.70439 | 102.75163 | 12106 ft | 361 kts | 28° |
| 2026-05-01 12:04 | 4.71949 | 102.75908 | 11771 ft | 356 kts | 28° |
| 2026-05-01 12:05 | 4.74852 | 102.77341 | 11094 ft | 345 kts | 28° |
| 2026-05-01 12:05 | 4.78376 | 102.79084 | 10265 ft | 333 kts | 28° |
| 2026-05-01 12:05 | 4.80401 | 102.80086 | 10097 ft | 316 kts | 28° |
| 2026-05-01 12:06 | 4.82320 | 102.81036 | 9957 ft | 300 kts | 28° |
| 2026-05-01 12:06 | 4.84173 | 102.81953 | 9558 ft | 295 kts | 28° |
| 2026-05-01 12:06 | 4.85981 | 102.82844 | 9341 ft | 285 kts | 27° |
| 2026-05-01 12:06 | 4.87874 | 102.83534 | 9215 ft | 292 kts | 17° |
| 2026-05-01 12:07 | 4.89840 | 102.84023 | 8944 ft | 292 kts | 16° |
| 2026-05-01 12:07 | 4.91807 | 102.84516 | 8564 ft | 289 kts | 16° |
| 2026-05-01 12:07 | 4.93738 | 102.85004 | 8188 ft | 284 kts | 16° |
| 2026-05-01 12:07 | 4.95634 | 102.85486 | 7811 ft | 278 kts | 16° |
| 2026-05-01 12:08 | 4.97499 | 102.85959 | 7443 ft | 274 kts | 16° |
| 2026-05-01 12:08 | 4.99333 | 102.86427 | 7077 ft | 270 kts | 16° |
| 2026-05-01 12:08 | 5.01138 | 102.86885 | 6730 ft | 266 kts | 16° |
| 2026-05-01 12:08 | 5.02710 | 102.87285 | 6416 ft | 265 kts | 16° |
| 2026-05-01 12:09 | 5.04487 | 102.87739 | 6054 ft | 263 kts | 15° |
| 2026-05-01 12:09 | 5.06257 | 102.88186 | 5708 ft | 261 kts | 16° |
| 2026-05-01 12:09 | 5.08051 | 102.88635 | 5556 ft | 277 kts | 14° |
| 2026-05-01 12:09 | 5.09950 | 102.89005 | 5360 ft | 276 kts | 13° |
| 2026-05-01 12:10 | 5.11837 | 102.89368 | 4728 ft | 277 kts | 13° |
| 2026-05-01 12:10 | 5.15552 | 102.90082 | 4076 ft | 272 kts | 12° |
| 2026-05-01 12:10 | 5.17394 | 102.90483 | 3997 ft | 260 kts | 20° |
| 2026-05-01 12:11 | 5.20084 | 102.92468 | 3814 ft | 234 kts | 47° |
| 2026-05-01 12:11 | 5.21244 | 102.93565 | 3736 ft | 224 kts | 44° |
| 2026-05-01 12:11 | 5.22346 | 102.94623 | 3667 ft | 215 kts | 47° |
| 2026-05-01 12:12 | 5.23389 | 102.95650 | 3573 ft | 207 kts | 47° |
| 2026-05-01 12:12 | 5.24411 | 102.96658 | 3344 ft | 207 kts | 47° |
| 2026-05-01 12:12 | 5.25445 | 102.97680 | 3075 ft | 210 kts | 46° |
| 2026-05-01 12:12 | 5.26494 | 102.98714 | 2800 ft | 212 kts | 46° |
| 2026-05-01 12:13 | 5.27550 | 102.99755 | 2530 ft | 214 kts | 46° |
| 2026-05-01 12:13 | 5.28617 | 103.00808 | 2252 ft | 216 kts | 46° |
| 2026-05-01 12:13 | 5.29699 | 103.01876 | 1970 ft | 219 kts | 45° |
| 2026-05-01 12:13 | 5.30791 | 103.02953 | 1673 ft | 220 kts | 46° |
| 2026-05-01 12:14 | 5.31855 | 103.04001 | 1431 ft | 205 kts | 46° |
| 2026-05-01 12:14 | 5.32837 | 103.04971 | 1161 ft | 190 kts | 47° |
| 2026-05-01 12:14 | 5.33721 | 103.05843 | 930 ft | 166 kts | 46° |
| 2026-05-01 12:14 | 5.34472 | 103.06583 | 747 ft | 140 kts | 45° |
| 2026-05-01 12:15 | 5.35153 | 103.07257 | 577 ft | 140 kts | 45° |
| 2026-05-01 12:15 | 5.35837 | 103.07931 | 399 ft | 137 kts | 45° |
| 2026-05-01 12:15 | 5.36518 | 103.08605 | 222 ft | 137 kts | 45° |
| 2026-05-01 12:15 | 5.37199 | 103.09274 | 51 ft | 136 kts | 45° |
| 2026-05-01 12:16 | 5.37729 | 103.09821 | 37 ft | 115 kts | 45° |
| 2026-05-01 12:16 | 5.38301 | 103.10434 | 218 ft | 162 kts | 47° |
| 2026-05-01 12:16 | 5.39131 | 103.11277 | 1267 ft | 179 kts | 47° |
| 2026-05-01 12:16 | 5.39983 | 103.12369 | 1995 ft | 226 kts | 63° |
| 2026-05-01 12:17 | 5.40758 | 103.13996 | 2008 ft | 275 kts | 64° |
| 2026-05-01 12:17 | 5.41674 | 103.15609 | 1927 ft | 259 kts | 60° |
| 2026-05-01 12:17 | 5.42037 | 103.17192 | 2323 ft | 216 kts | 102° |
| 2026-05-01 12:17 | 5.41274 | 103.18431 | 2674 ft | 220 kts | 144° |
| 2026-05-01 12:18 | 5.39810 | 103.18808 | 2914 ft | 224 kts | 182° |
| 2026-05-01 12:18 | 5.38304 | 103.18345 | 2673 ft | 233 kts | 211° |
| 2026-05-01 12:18 | 5.37175 | 103.17159 | 2384 ft | 236 kts | 231° |
| 2026-05-01 12:18 | 5.36138 | 103.15929 | 2311 ft | 227 kts | 227° |
| 2026-05-01 12:19 | 5.35081 | 103.14726 | 2236 ft | 230 kts | 227° |
| 2026-05-01 12:19 | 5.34027 | 103.13525 | 2157 ft | 229 kts | 227° |
| 2026-05-01 12:19 | 5.32972 | 103.12322 | 2072 ft | 230 kts | 227° |
| 2026-05-01 12:19 | 5.31920 | 103.11120 | 2003 ft | 228 kts | 227° |
| 2026-05-01 12:20 | 5.30870 | 103.09941 | 1874 ft | 225 kts | 225° |
| 2026-05-01 12:20 | 5.29730 | 103.08868 | 1615 ft | 225 kts | 220° |
| 2026-05-01 12:20 | 5.28562 | 103.07824 | 1519 ft | 226 kts | 220° |
| 2026-05-01 12:20 | 5.27391 | 103.06774 | 1502 ft | 226 kts | 220° |
| 2026-05-01 12:21 | 5.26217 | 103.05724 | 1501 ft | 224 kts | 220° |
| 2026-05-01 12:21 | 5.25167 | 103.04568 | 1503 ft | 227 kts | 242° |
| 2026-05-01 12:21 | 5.24827 | 103.03050 | 1532 ft | 220 kts | 274° |
| 2026-05-01 12:21 | 5.25346 | 103.01681 | 1505 ft | 213 kts | 310° |
| 2026-05-01 12:22 | 5.26506 | 103.00828 | 1508 ft | 196 kts | 336° |
| 2026-05-01 12:22 | 5.27706 | 103.00605 | 1501 ft | 160 kts | 9° |
| 2026-05-01 12:22 | 5.28671 | 103.00959 | 1500 ft | 140 kts | 36° |
| 2026-05-01 12:22 | 5.29346 | 103.01591 | 1515 ft | 134 kts | 48° |
| 2026-05-01 12:23 | 5.30015 | 103.02265 | 1500 ft | 136 kts | 47° |
| 2026-05-01 12:23 | 5.30695 | 103.02908 | 1505 ft | 138 kts | 46° |
| 2026-05-01 12:23 | 5.31382 | 103.03563 | 1498 ft | 137 kts | 47° |
| 2026-05-01 12:23 | 5.32070 | 103.04218 | 1349 ft | 137 kts | 46° |
| 2026-05-01 12:24 | 5.32749 | 103.04886 | 1170 ft | 135 kts | 48° |
| 2026-05-01 12:24 | 5.33419 | 103.05545 | 1004 ft | 135 kts | 47° |
| 2026-05-01 12:24 | 5.34090 | 103.06207 | 839 ft | 135 kts | 46° |
| 2026-05-01 12:24 | 5.34762 | 103.06870 | 668 ft | 137 kts | 46° |
| 2026-05-01 12:25 | 5.35443 | 103.07542 | 502 ft | 137 kts | 45° |
| 2026-05-01 12:25 | 5.36807 | 103.08889 | 125 ft | 137 kts | 45° |
| 2026-05-01 12:25 | 5.37467 | 103.09540 | 33 ft | 124 kts | 45° |
| 2026-05-01 12:26 | 5.37951 | 103.10021 | 28 ft | 61 kts | 45° |
| 2026-05-01 12:26 | 5.38070 | 103.10208 | 28 ft | 8 kts | 140° |
| 2026-05-01 12:26 | 5.38030 | 103.10248 | 27 ft | 7 kts | 134° |
| 2026-05-01 12:27 | 5.37993 | 103.10302 | 29 ft | 11 kts | 119° |
| 2026-05-01 12:27 | 5.37936 | 103.10365 | 25 ft | 0 kts | 135° |
| 2026-05-01 12:28 | 5.37934 | 103.10366 | 25 ft | 3 kts | 135° |
| 2026-05-01 12:29 | 5.37912 | 103.10388 | 30 ft | 6 kts | 135° |
| 2026-05-01 12:29 | 5.37908 | 103.10392 | 27 ft | 0 kts | 135° |
| 2026-05-01 12:29 | 5.37903 | 103.10398 | 27 ft | 0 kts | 134° |